Time;durP1;ratioP1;P1;durP2;ratioP2;P2;SDS_P1;SDS_P2;PMS_P1;PMS_P2;Temp;Humidity;BMP_temperature;BMP_pressure;BME280_temperature;BME280_humidity;BME280_pressure;Samples;Min_cycle;Max_cycle;Signal;HPM_P1;HPM_P2
2023/03/07 00:00:07;;;;;;;22.30;13.50;;;;;;;-0.32;91.74;99294.65;105527;1257;72746;-59
2023/03/07 00:02:55;;;;;;;22.80;14.40;;;;;;;-0.31;91.85;99288.62;105525;1252;69191;-59
2023/03/07 00:05:23;;;;;;;30.70;14.90;;;;;;;-0.29;91.80;99287.56;105496;1256;69068;-59
2023/03/07 00:07:51;;;;;;;54.30;19.70;;;;;;;-0.26;92.04;99288.39;105514;1257;74603;-59
2023/03/07 00:10:19;;;;;;;41.10;16.70;;;;;;;-0.24;92.01;99286.15;105494;1257;81809;-59
2023/03/07 00:12:47;;;;;;;21.90;12.50;;;;;;;-0.22;92.09;99284.92;105416;1256;73171;-60
2023/03/07 00:15:16;;;;;;;26.10;13.30;;;;;;;-0.18;92.32;99280.41;105519;1257;69090;-60
2023/03/07 00:17:44;;;;;;;36.70;15.80;;;;;;;-0.17;92.61;99279.89;105579;1256;69111;-60
2023/03/07 00:20:14;;;;;;;56.80;20.00;;;;;;;-0.16;92.66;99276.27;105493;1264;75073;-60
2023/03/07 00:22:43;;;;;;;63.40;21.10;;;;;;;-0.16;92.70;99274.91;105517;1257;83423;-60
2023/03/07 00:25:12;;;;;;;58.50;19.90;;;;;;;-0.16;92.81;99275.59;105566;1256;72850;-60
2023/03/07 00:27:40;;;;;;;38.90;16.30;;;;;;;-0.17;92.71;99273.69;105533;1257;69048;-60
2023/03/07 00:30:11;;;;;;;35.50;14.10;;;;;;;-0.10;92.75;99270.19;105798;1256;69183;-59
2023/03/07 00:32:39;;;;;;;32.70;14.40;;;;;;;-0.08;92.49;99268.95;105569;1257;73389;-59
2023/03/07 00:35:07;;;;;;;31.30;12.90;;;;;;;-0.05;92.57;99267.55;105552;1257;83842;-59
2023/03/07 00:37:36;;;;;;;40.60;16.20;;;;;;;-0.01;92.55;99264.75;105517;1255;73695;-59
2023/03/07 00:40:06;;;;;;;31.80;13.90;;;;;;;0.02;92.61;99262.16;105487;1254;69162;-59
2023/03/07 00:42:34;;;;;;;25.70;14.30;;;;;;;0.04;92.59;99255.42;105616;1256;69029;-59
2023/03/07 00:45:02;;;;;;;34.50;18.00;;;;;;;0.00;92.55;99250.84;105457;1257;74990;-59
2023/03/07 00:47:31;;;;;;;37.30;19.20;;;;;;;-0.05;92.45;99246.60;105601;1256;83373;-59
2023/03/07 00:49:59;;;;;;;38.40;17.80;;;;;;;-0.07;92.68;99249.20;105704;1257;73704;-59
2023/03/07 00:52:27;;;;;;;38.50;16.70;;;;;;;-0.10;92.57;99240.48;105431;1254;69588;-60
2023/03/07 00:54:55;;;;;;;26.40;13.60;;;;;;;-0.14;92.52;99239.33;105472;1255;69241;-60
2023/03/07 00:57:24;;;;;;;28.10;14.80;;;;;;;-0.18;92.54;99238.35;105524;1256;75114;-60
2023/03/07 00:59:52;;;;;;;28.40;14.40;;;;;;;-0.19;92.74;99239.04;105622;1266;83044;-60
2023/03/07 01:02:21;;;;;;;33.30;16.00;;;;;;;-0.18;92.51;99236.45;105542;1257;73764;-60
2023/03/07 01:04:49;;;;;;;31.90;16.10;;;;;;;-0.18;92.56;99231.48;105813;1252;69071;-60
2023/03/07 01:07:17;;;;;;;37.00;17.80;;;;;;;-0.18;92.54;99233.37;105373;1254;69260;-60
2023/03/07 01:09:50;;;;;;;29.00;16.90;;;;;;;-0.18;92.63;99230.97;105699;1258;75140;-60
2023/03/07 01:12:18;;;;;;;25.10;15.40;;;;;;;-0.15;92.79;99231.10;105296;1258;82375;-60
2023/03/07 01:14:49;;;;;;;23.90;15.30;;;;;;;-0.12;92.93;99230.04;105545;1256;73512;-60
2023/03/07 01:17:18;;;;;;;24.30;15.30;;;;;;;-0.09;93.07;99232.91;105687;1254;69455;-60
2023/03/07 01:19:46;;;;;;;28.10;17.10;;;;;;;-0.09;93.26;99230.50;105550;1256;69166;-60
2023/03/07 01:22:15;;;;;;;42.50;20.80;;;;;;;-0.08;93.35;99226.05;105399;1255;75052;-59
2023/03/07 01:24:43;;;;;;;30.20;18.20;;;;;;;-0.08;93.59;99230.31;105505;1256;83810;-60
2023/03/07 01:27:11;;;;;;;29.80;16.70;;;;;;;-0.07;93.64;99225.16;105361;1257;73917;-60
2023/03/07 01:29:39;;;;;;;33.10;18.70;;;;;;;-0.03;93.48;99225.95;105850;1255;69125;-60
2023/03/07 01:32:08;;;;;;;29.80;16.90;;;;;;;0.01;93.49;99225.92;105555;1257;70665;-60
2023/03/07 01:34:37;;;;;;;33.00;20.20;;;;;;;0.05;93.49;99216.08;105774;1257;74566;-60
2023/03/07 01:37:05;;;;;;;65.50;30.80;;;;;;;0.08;93.62;99208.82;105506;1257;83389;-60
2023/03/07 01:39:33;;;;;;;62.70;30.50;;;;;;;0.11;93.44;99205.35;105497;1257;73929;-60
2023/03/07 01:42:08;;;;;;;73.30;27.30;;;;;;;0.12;93.55;99199.99;105500;1256;69166;-60
2023/03/07 01:45:01;;;;;;;58.80;26.50;;;;;;;0.11;93.83;99190.23;105523;1253;69231;-60
2023/03/07 01:47:42;;;;;;;54.50;24.90;;;;;;;0.09;93.85;99184.41;105531;1256;75119;-60
2023/03/07 01:50:15;;;;;;;49.70;25.60;;;;;;;0.09;93.83;99183.40;105718;1256;83506;-60
2023/03/07 01:52:51;;;;;;;49.10;24.20;;;;;;;0.08;93.82;99174.81;105650;1257;71924;-60
2023/03/07 01:55:23;;;;;;;42.40;22.10;;;;;;;0.08;94.00;99166.56;105756;1255;69278;-60
2023/03/07 01:57:55;;;;;;;36.70;20.70;;;;;;;0.15;93.83;99160.80;105463;1255;69061;-60
2023/03/07 02:00:29;;;;;;;34.60;20.30;;;;;;;0.19;93.62;99156.45;105597;1255;75073;-60
2023/03/07 02:03:38;;;;;;;37.00;20.50;;;;;;;0.20;93.57;99152.30;105835;1254;82469;-60
2023/03/07 02:06:10;;;;;;;33.80;19.60;;;;;;;0.20;93.50;99149.39;104972;1256;73587;-60
2023/03/07 02:08:38;;;;;;;36.00;21.10;;;;;;;0.19;93.44;99146.83;105494;1254;69180;-60
2023/03/07 02:11:07;;;;;;;37.80;21.60;;;;;;;0.14;93.34;99147.23;105602;1255;69102;-60
2023/03/07 02:13:35;;;;;;;37.50;20.90;;;;;;;0.09;93.29;99142.67;105450;1257;74913;-60
2023/03/07 02:16:05;;;;;;;35.50;21.20;;;;;;;0.03;93.21;99140.02;105845;1257;83743;-60
2023/03/07 02:18:37;;;;;;;32.60;18.90;;;;;;;-0.02;93.25;99141.13;105404;1254;73782;-60
2023/03/07 02:21:28;;;;;;;32.80;20.00;;;;;;;-0.08;93.13;99142.76;105487;1257;69185;-60
2023/03/07 02:24:15;;;;;;;30.50;17.40;;;;;;;-0.15;93.29;99135.13;105221;1257;69187;-60
2023/03/07 02:26:45;;;;;;;29.80;17.60;;;;;;;-0.20;93.29;99139.30;105508;1256;74986;-60
2023/03/07 02:29:14;;;;;;;30.30;18.00;;;;;;;-0.20;93.08;99135.04;105544;1254;83655;-60
2023/03/07 02:31:45;;;;;;;30.30;17.90;;;;;;;-0.22;93.15;99130.93;105847;1255;73764;-60
2023/03/07 02:34:26;;;;;;;57.70;29.20;;;;;;;-0.23;93.23;99126.48;105554;1257;69228;-60
2023/03/07 02:37:07;;;;;;;94.50;37.90;;;;;;;-0.25;93.36;99127.88;105510;1253;69176;-60
2023/03/07 02:39:38;;;;;;;110.30;42.80;;;;;;;-0.26;93.41;99121.88;105808;1254;74862;-60
2023/03/07 02:42:09;;;;;;;122.20;46.40;;;;;;;-0.29;93.65;99119.69;105385;1254;83421;-59
2023/03/07 02:44:45;;;;;;;158.10;56.50;;;;;;;-0.32;93.67;99117.84;105321;1257;73933;-60
2023/03/07 02:47:15;;;;;;;73.10;30.10;;;;;;;-0.35;93.71;99116.17;105252;1257;69154;-60
2023/03/07 02:49:43;;;;;;;38.20;20.70;;;;;;;-0.39;93.64;99117.42;105806;1252;69234;-59
2023/03/07 02:52:12;;;;;;;43.40;21.90;;;;;;;-0.45;93.50;99112.36;105514;1256;73387;-60
2023/03/07 02:54:40;;;;;;;48.40;22.90;;;;;;;-0.49;93.67;99107.61;105517;1254;83532;-60
2023/03/07 02:57:09;;;;;;;34.80;18.40;;;;;;;-0.49;93.42;99107.44;105539;1262;73778;-60
2023/03/07 02:59:37;;;;;;;32.70;17.90;;;;;;;-0.50;93.63;99102.80;105509;1257;69168;-61
2023/03/07 03:02:06;;;;;;;30.30;16.10;;;;;;;-0.50;93.67;99102.80;105714;1254;69141;-61
2023/03/07 03:04:35;;;;;;;32.70;17.60;;;;;;;-0.51;93.68;99096.98;105627;1254;74651;-61
2023/03/07 03:07:03;;;;;;;28.60;17.60;;;;;;;-0.50;93.85;99096.29;105490;1254;81564;-61
2023/03/07 03:09:31;;;;;;;29.80;16.90;;;;;;;-0.51;93.91;99091.84;105475;1257;73865;-61
2023/03/07 03:11:59;;;;;;;30.60;17.20;;;;;;;-0.49;94.04;99094.05;105590;1254;69199;-61
2023/03/07 03:14:29;;;;;;;30.30;18.40;;;;;;;-0.48;94.21;99090.77;105555;1255;69132;-61
2023/03/07 03:16:57;;;;;;;28.80;16.90;;;;;;;-0.47;94.39;99083.73;105724;1256;75403;-61
2023/03/07 03:19:27;;;;;;;31.30;18.70;;;;;;;-0.47;94.52;99076.86;105512;1257;83260;-61
2023/03/07 03:21:56;;;;;;;31.80;18.30;;;;;;;-0.48;94.47;99079.27;105796;1254;73180;-60
2023/03/07 03:24:25;;;;;;;32.30;18.30;;;;;;;-0.50;94.42;99076.55;105530;1256;69095;-60
2023/03/07 03:26:56;;;;;;;31.30;18.80;;;;;;;-0.51;94.46;99074.67;105512;1257;69490;-61
2023/03/07 03:29:26;;;;;;;30.90;17.20;;;;;;;-0.48;94.44;99067.95;105574;1256;74247;-61
2023/03/07 03:31:57;;;;;;;27.80;15.70;;;;;;;-0.47;94.40;99064.69;105517;1266;83514;-60
2023/03/07 03:34:26;;;;;;;28.80;17.60;;;;;;;-0.45;94.38;99062.58;105420;1255;73642;-60
2023/03/07 03:36:54;;;;;;;29.50;17.50;;;;;;;-0.43;94.42;99056.91;105526;1257;69278;-61
2023/03/07 03:39:22;;;;;;;29.70;18.10;;;;;;;-0.43;94.44;99054.14;105514;1256;69192;-61
2023/03/07 03:41:55;;;;;;;31.40;17.70;;;;;;;-0.41;94.47;99054.98;105549;1257;74954;-61
2023/03/07 03:44:24;;;;;;;31.70;18.90;;;;;;;-0.40;94.54;99052.21;105576;1256;82095;-61
2023/03/07 03:46:54;;;;;;;31.60;19.50;;;;;;;-0.40;94.62;99053.43;105536;1254;72566;-61
2023/03/07 03:49:23;;;;;;;;;;;;;;;-0.44;94.53;99052.96;105530;1257;69122;-60
2023/03/07 03:51:52;;;;;;;36.60;20.70;;;;;;;-0.48;94.61;99045.48;105557;1254;69164;-61
2023/03/07 03:54:21;;;;;;;55.00;28.20;;;;;;;-0.50;94.71;99048.07;105504;1256;75180;-61
2023/03/07 03:56:49;;;;;;;40.50;22.80;;;;;;;-0.52;94.78;99045.35;105867;1256;83213;-60
2023/03/07 03:59:18;;;;;;;39.10;21.40;;;;;;;-0.51;94.54;99039.33;105492;1257;74198;-61
2023/03/07 04:01:46;;;;;;;37.30;20.60;;;;;;;-0.51;94.31;99039.67;105573;1256;69084;-61
2023/03/07 04:04:15;;;;;;;41.60;20.80;;;;;;;-0.53;94.31;99040.03;105579;1254;69077;-61
2023/03/07 04:06:43;;;;;;;46.90;24.40;;;;;;;-0.53;94.53;99031.98;105691;1255;75298;-61
2023/03/07 04:09:11;;;;;;;39.50;20.10;;;;;;;-0.53;94.51;99030.25;105465;1254;83256;-61
2023/03/07 04:11:42;;;;;;;;;;;;;;;-0.53;94.60;99029.58;105532;1256;73742;-61
2023/03/07 04:14:10;;;;;;;33.20;18.60;;;;;;;-0.55;94.73;99029.45;105494;1256;69139;-61
2023/03/07 04:16:39;;;;;;;36.70;22.20;;;;;;;-0.57;94.82;99024.48;105547;1257;69064;-61
2023/03/07 04:19:11;;;;;;;36.80;21.10;;;;;;;-0.57;94.98;99021.23;105507;1254;73877;-61
2023/03/07 04:21:39;;;;;;;34.30;20.80;;;;;;;-0.59;94.98;99022.46;105568;1257;83308;-61
2023/03/07 04:24:08;;;;;;;37.70;21.40;;;;;;;-0.61;95.01;99018.71;105583;1254;73062;-61
2023/03/07 04:26:37;;;;;;;44.90;24.40;;;;;;;-0.58;94.94;99015.23;105464;1254;69252;-62
2023/03/07 04:29:05;;;;;;;37.10;21.10;;;;;;;-0.57;94.69;99012.66;105536;1254;69144;-62
2023/03/07 04:31:38;;;;;;;40.00;21.50;;;;;;;-0.57;94.76;99013.33;105588;1256;74879;-61
2023/03/07 04:34:07;;;;;;;42.20;21.90;;;;;;;-0.55;94.70;99008.34;105530;1254;82922;-61
2023/03/07 04:36:35;;;;;;;37.40;20.00;;;;;;;-0.54;94.91;99007.80;105539;1252;73397;-61
2023/03/07 04:39:04;;;;;;;34.20;19.20;;;;;;;-0.51;94.91;99003.29;105728;1255;69188;-61
2023/03/07 04:41:32;;;;;;;32.30;19.50;;;;;;;-0.48;94.80;98994.33;105545;1257;69188;-61
2023/03/07 04:44:05;;;;;;;32.00;19.10;;;;;;;-0.46;95.01;98992.60;105616;1256;75088;-61
2023/03/07 04:46:33;;;;;;;34.30;19.40;;;;;;;-0.47;95.13;98992.44;105368;1254;83787;-62
2023/03/07 04:49:01;;;;;;;33.20;19.20;;;;;;;-0.48;95.23;98986.61;105239;1254;72894;-61
2023/03/07 04:51:30;;;;;;;36.90;19.70;;;;;;;-0.49;95.22;98984.23;105570;1252;69132;-61
2023/03/07 04:53:58;;;;;;;32.00;19.60;;;;;;;-0.51;95.28;98976.70;105565;1252;68991;-61
2023/03/07 04:56:26;;;;;;;34.60;19.50;;;;;;;-0.51;95.21;98978.09;105469;1257;73881;-61
2023/03/07 04:58:55;;;;;;;36.90;20.40;;;;;;;-0.52;95.14;98971.23;105572;1254;83500;-61
2023/03/07 05:01:23;;;;;;;34.90;19.70;;;;;;;-0.50;95.06;98970.35;105493;1254;72685;-61
2023/03/07 05:03:51;;;;;;;34.00;18.70;;;;;;;-0.49;95.05;98965.85;105597;1257;69195;-61
2023/03/07 05:06:20;;;;;;;31.20;18.60;;;;;;;-0.48;94.95;98961.89;105885;1255;69230;-59
2023/03/07 05:08:50;;;;;;;35.80;21.00;;;;;;;-0.47;94.90;98955.55;105526;1256;75243;-59
2023/03/07 05:11:19;;;;;;;32.20;19.00;;;;;;;-0.47;95.02;98952.62;105555;1257;82963;-59
2023/03/07 05:13:49;;;;;;;36.30;20.40;;;;;;;-0.43;95.02;98947.77;105566;1257;73857;-59
2023/03/07 05:16:19;;;;;;;;;;;;;;;-0.43;95.06;98944.33;105526;1255;69081;-59
2023/03/07 05:18:48;;;;;;;32.50;18.30;;;;;;;-0.45;95.22;98942.64;105577;1256;69128;-59
2023/03/07 05:21:16;;;;;;;34.30;18.90;;;;;;;-0.47;95.35;98943.20;105599;1256;74586;-59
2023/03/07 05:23:45;;;;;;;34.60;19.60;;;;;;;-0.50;95.30;98939.11;105582;1254;82530;-59
2023/03/07 05:26:13;;;;;;;33.70;20.50;;;;;;;-0.52;95.26;98942.73;105495;1251;73412;-59
2023/03/07 05:28:42;;;;;;;31.60;18.30;;;;;;;-0.54;95.15;98942.10;105749;1254;69186;-59
2023/03/07 05:31:10;;;;;;;33.20;19.00;;;;;;;-0.53;95.04;98943.45;105512;1254;69102;-61
2023/03/07 05:33:41;;;;;;;31.60;18.50;;;;;;;-0.53;94.87;98942.92;105565;1254;73991;-59
2023/03/07 05:36:10;;;;;;;28.80;17.20;;;;;;;-0.54;94.91;98940.02;105857;1253;83120;-59
2023/03/07 05:38:39;;;;;;;28.30;17.40;;;;;;;-0.55;94.89;98935.08;106009;1252;73582;-59
2023/03/07 05:41:08;;;;;;;31.70;18.00;;;;;;;-0.53;94.90;98936.92;105966;1257;69182;-60
2023/03/07 05:43:36;;;;;;;30.10;18.40;;;;;;;-0.52;94.88;98931.08;105869;1253;69074;-58
2023/03/07 05:46:04;;;;;;;29.90;16.90;;;;;;;-0.51;94.84;98929.18;105585;1257;74436;-59
2023/03/07 05:48:33;;;;;;;42.40;21.30;;;;;;;-0.54;94.84;98923.56;105608;1254;83918;-59
2023/03/07 05:51:01;;;;;;;41.60;21.00;;;;;;;-0.56;95.16;98924.79;105543;1254;73584;-59
2023/03/07 05:53:30;;;;;;;37.50;21.50;;;;;;;-0.55;95.39;98914.66;105900;1253;68953;-59
2023/03/07 05:55:59;;;;;;;38.10;21.30;;;;;;;-0.52;95.39;98913.76;105667;1253;69028;-59
2023/03/07 05:58:28;;;;;;;32.40;19.10;;;;;;;-0.51;95.55;98908.77;105777;1254;74814;-59
2023/03/07 06:00:56;;;;;;;34.50;19.40;;;;;;;-0.45;95.46;98908.67;105568;1254;83889;-59
2023/03/07 06:03:25;;;;;;;32.50;18.80;;;;;;;-0.41;95.36;98906.19;105561;1257;72706;-59
2023/03/07 06:05:53;;;;;;;34.00;19.60;;;;;;;-0.37;95.25;98902.87;105451;1254;69122;-59
2023/03/07 06:08:22;;;;;;;32.50;18.20;;;;;;;-0.33;95.26;98903.14;106087;1254;69176;-59
2023/03/07 06:10:52;;;;;;;30.70;17.80;;;;;;;-0.28;95.36;98896.88;105636;1256;73864;-60
2023/03/07 06:13:22;;;;;;;31.30;17.80;;;;;;;-0.22;95.52;98898.48;105692;1254;83598;-60
2023/03/07 06:15:52;;;;;;;30.00;19.00;;;;;;;-0.18;95.36;98899.45;105612;1256;74090;-60
2023/03/07 06:18:21;;;;;;;32.80;18.20;;;;;;;-0.16;95.47;98898.05;105636;1254;69329;-60
2023/03/07 06:21:00;;;;;;;32.00;19.40;;;;;;;-0.16;95.43;98894.09;106134;1253;69173;-60
2023/03/07 06:23:32;;;;;;;38.20;21.90;;;;;;;-0.17;95.55;98890.84;106030;1254;73688;-60
2023/03/07 06:26:02;;;;;;;35.40;21.50;;;;;;;-0.17;95.35;98889.81;105621;1254;82840;-60
2023/03/07 06:28:30;;;;;;;36.60;21.30;;;;;;;-0.18;95.32;98891.04;105781;1254;73180;-61
2023/03/07 06:31:07;;;;;;;29.80;18.90;;;;;;;-0.19;95.20;98888.99;105621;1252;69105;-60
2023/03/07 06:33:36;;;;;;;33.90;20.10;;;;;;;-0.16;95.04;98888.42;105594;1256;69572;-61
2023/03/07 06:36:10;;;;;;;31.30;19.50;;;;;;;-0.12;94.86;98886.64;105682;1256;74473;-61
2023/03/07 06:38:40;;;;;;;27.80;17.40;;;;;;;-0.11;94.81;98880.95;105689;1258;83474;-60
2023/03/07 06:41:09;;;;;;;31.50;18.60;;;;;;;-0.08;94.93;98880.21;105757;1253;72741;-61
2023/03/07 06:43:38;;;;;;;34.20;20.10;;;;;;;-0.05;94.83;98874.15;106059;1256;69215;-61
2023/03/07 06:46:07;;;;;;;31.80;19.00;;;;;;;-0.01;94.84;98874.24;105580;1257;69105;-61
2023/03/07 06:48:38;;;;;;;32.20;19.30;;;;;;;-0.02;94.86;98872.20;106102;1253;75102;-61
2023/03/07 06:51:09;;;;;;;33.00;20.40;;;;;;;-0.05;94.78;98867.96;105651;1256;83489;-61
2023/03/07 06:53:40;;;;;;;32.90;20.40;;;;;;;-0.06;94.72;98866.77;106106;1254;72690;-61
2023/03/07 06:56:08;;;;;;;35.40;20.50;;;;;;;-0.05;94.81;98860.77;105776;1251;69553;-61
2023/03/07 06:58:38;;;;;;;33.60;20.40;;;;;;;-0.04;94.98;98862.27;105738;1256;69118;-61
2023/03/07 07:01:14;;;;;;;34.60;20.30;;;;;;;-0.01;95.01;98861.71;105446;1256;75006;-59
2023/03/07 07:03:43;;;;;;;33.50;19.00;;;;;;;0.05;94.93;98857.13;105526;1257;82504;-58
2023/03/07 07:06:11;;;;;;;34.00;20.30;;;;;;;0.12;94.97;98857.35;105532;1253;71824;-59
2023/03/07 07:08:40;;;;;;;32.10;19.90;;;;;;;0.17;95.06;98853.98;105648;1252;69169;-58
2023/03/07 07:11:09;;;;;;;37.20;22.20;;;;;;;0.24;95.05;98850.58;105638;1251;69174;-58
2023/03/07 07:13:38;;;;;;;39.30;21.90;;;;;;;0.33;95.04;98852.80;105694;1253;74868;-58
2023/03/07 07:16:07;;;;;;;29.90;19.40;;;;;;;0.40;95.25;98854.02;105444;1254;83416;-58
2023/03/07 07:18:36;;;;;;;30.80;19.40;;;;;;;0.46;95.42;98848.58;105720;1253;74043;-58
2023/03/07 07:21:05;;;;;;;46.30;26.50;;;;;;;0.53;95.46;98847.05;105543;1255;69218;-58
2023/03/07 07:23:33;;;;;;;41.70;24.00;;;;;;;0.59;95.46;98845.54;106134;1252;69057;-58
2023/03/07 07:26:03;;;;;;;46.20;26.80;;;;;;;0.66;95.43;98840.76;106702;1253;74670;-59
2023/03/07 07:28:33;;;;;;;34.20;20.40;;;;;;;0.72;95.37;98836.17;105847;1256;83424;-58
2023/03/07 07:31:02;;;;;;;40.00;22.20;;;;;;;0.79;95.35;98833.79;105670;1254;73545;-59
2023/03/07 07:33:32;;;;;;;33.00;20.40;;;;;;;0.87;95.01;98836.67;105865;1254;69176;-58
2023/03/07 07:36:00;;;;;;;30.80;18.60;;;;;;;0.98;94.93;98839.34;105591;1254;69088;-58
2023/03/07 07:38:29;;;;;;;32.20;19.00;;;;;;;1.08;94.92;98836.35;105926;1253;74596;-59
2023/03/07 07:40:58;;;;;;;31.00;19.50;;;;;;;1.19;94.69;98829.91;105612;1254;82020;-59
2023/03/07 07:43:26;;;;;;;31.70;18.90;;;;;;;1.31;94.85;98820.34;105499;1253;72860;-58
2023/03/07 07:46:03;;;;;;;28.60;18.50;;;;;;;1.42;94.71;98818.16;105556;1254;69084;-58
2023/03/07 07:48:32;;;;;;;33.00;19.20;;;;;;;1.51;94.77;98815.54;105868;1254;69247;-60
2023/03/07 07:51:01;;;;;;;33.30;20.80;;;;;;;1.60;94.74;98817.71;105856;1253;74995;-57
2023/03/07 07:53:30;;;;;;;33.60;21.20;;;;;;;1.65;94.62;98819.96;105841;1256;83149;-59
2023/03/07 07:55:59;;;;;;;37.40;21.70;;;;;;;1.70;94.39;98818.30;105613;1254;73960;-59
2023/03/07 07:58:28;;;;;;;33.70;21.10;;;;;;;1.79;94.28;98815.14;105773;1254;69334;-57
2023/03/07 08:00:56;;;;;;;31.40;20.00;;;;;;;1.91;94.30;98806.88;106090;1254;69458;-61
2023/03/07 08:03:25;;;;;;;32.20;20.50;;;;;;;2.07;94.47;98805.91;105644;1254;74116;-61
2023/03/07 08:05:54;;;;;;;31.40;20.20;;;;;;;2.21;94.03;98800.54;105630;1251;83443;-61
2023/03/07 08:08:22;;;;;;;29.70;19.80;;;;;;;2.34;94.01;98794.48;105672;1257;73837;-62
2023/03/07 08:10:50;;;;;;;28.20;19.00;;;;;;;2.46;93.79;98789.98;105619;1251;69179;-62
2023/03/07 08:13:19;;;;;;;29.90;19.40;;;;;;;2.54;93.78;98790.10;105607;1253;69073;-62
2023/03/07 08:15:47;;;;;;;31.20;20.50;;;;;;;2.63;93.57;98781.19;106112;1251;74891;-65
2023/03/07 08:18:16;;;;;;;38.00;24.50;;;;;;;2.73;93.69;98782.42;105682;1256;83386;-67
2023/03/07 08:20:44;;;;;;;31.90;21.50;;;;;;;2.81;93.49;98778.73;105605;1256;72504;-65
2023/03/07 08:23:12;;;;;;;30.00;20.00;;;;;;;2.85;93.32;98781.70;105575;1253;69174;-64
2023/03/07 08:25:40;;;;;;;32.10;21.00;;;;;;;2.95;93.32;98782.27;105621;1251;69069;-68
2023/03/07 08:28:08;;;;;;;32.20;20.80;;;;;;;3.05;92.97;98783.83;105671;1255;75431;-67
2023/03/07 08:30:37;;;;;;;32.30;19.80;;;;;;;3.16;92.59;98783.98;106026;1253;83700;-65
2023/03/07 08:33:06;;;;;;;36.00;20.70;;;;;;;3.23;92.30;98784.99;105596;1254;73074;-64
2023/03/07 08:35:34;;;;;;;31.80;19.60;;;;;;;3.30;92.18;98778.66;105591;1254;69049;-63
2023/03/07 08:38:02;;;;;;;28.20;18.80;;;;;;;3.41;92.38;98773.17;105589;1254;69100;-62
2023/03/07 08:40:31;;;;;;;28.50;19.60;;;;;;;3.45;92.11;98773.55;105598;1254;74058;-62
2023/03/07 08:42:59;;;;;;;27.10;18.90;;;;;;;3.49;92.14;98771.50;106022;1256;82185;-62
2023/03/07 08:45:28;;;;;;;29.60;19.00;;;;;;;3.50;91.92;98768.88;105625;1254;139526;-64
2023/03/07 08:47:56;;;;;;;31.10;19.40;;;;;;;3.51;91.77;98770.91;105620;1254;69176;-63
2023/03/07 08:50:27;;;;;;;28.30;19.00;;;;;;;3.53;91.67;98767.55;105464;1253;68981;-62
2023/03/07 08:52:56;;;;;;;28.20;19.60;;;;;;;3.59;91.38;98770.11;105753;1255;73852;-62
2023/03/07 08:55:24;;;;;;;28.50;18.10;;;;;;;3.63;91.26;98768.58;106037;1253;83708;-62
2023/03/07 08:57:53;;;;;;;23.60;15.40;;;;;;;3.70;90.65;98768.00;105606;1254;72799;-62
2023/03/07 09:00:21;;;;;;;23.10;16.50;;;;;;;3.74;90.33;98765.95;105878;1256;69246;-59
2023/03/07 09:02:49;;;;;;;28.30;16.50;;;;;;;3.76;90.18;98766.40;105662;1256;69155;-59
2023/03/07 09:05:18;;;;;;;23.90;16.80;;;;;;;3.79;90.28;98766.30;105972;1253;74814;-59
2023/03/07 09:07:46;;;;;;;25.00;17.30;;;;;;;3.78;90.14;98774.08;105608;1254;82925;-59
2023/03/07 09:10:16;;;;;;;25.90;17.50;;;;;;;3.74;89.75;98767.35;105560;1254;73897;-59
2023/03/07 09:12:44;;;;;;;24.90;16.60;;;;;;;3.70;89.62;98769.73;105874;1253;69058;-59
2023/03/07 09:15:12;;;;;;;21.90;13.70;;;;;;;3.70;89.28;98765.94;105553;1253;69068;-59
2023/03/07 09:17:40;;;;;;;20.30;13.80;;;;;;;3.60;89.00;98771.80;105600;1256;73907;-60
2023/03/07 09:20:10;;;;;;;22.00;13.40;;;;;;;3.49;89.00;98770.98;105867;1256;83775;-60
2023/03/07 09:22:38;;;;;;;21.00;14.00;;;;;;;3.42;89.53;98766.89;105656;1253;72859;-60
2023/03/07 09:25:08;;;;;;;21.20;14.60;;;;;;;3.32;89.63;98762.73;106010;1254;69087;-60
2023/03/07 09:27:36;;;;;;;19.00;12.90;;;;;;;3.28;89.80;98761.34;105818;1251;69071;-60
2023/03/07 09:30:05;;;;;;;21.20;13.40;;;;;;;3.28;89.96;98759.61;105721;1256;74140;-59
2023/03/07 09:32:33;;;;;;;17.20;11.10;;;;;;;3.31;90.06;98766.08;105621;1251;83367;-58
2023/03/07 09:35:02;;;;;;;19.40;13.10;;;;;;;3.31;89.98;98756.05;105614;1253;72771;-59
2023/03/07 09:37:30;;;;;;;21.50;15.10;;;;;;;3.36;90.84;98755.38;105667;1254;69170;-58
2023/03/07 09:39:59;;;;;;;21.50;13.70;;;;;;;3.40;90.70;98748.85;106101;1253;69992;-47
2023/03/07 09:42:39;;;;;;;22.30;14.20;;;;;;;3.47;91.13;98747.75;105608;1254;73541;-46
2023/03/07 09:45:10;;;;;;;19.70;13.10;;;;;;;3.58;91.37;98743.03;105607;1259;83609;-46
2023/03/07 09:48:24;;;;;;;18.70;12.40;;;;;;;3.70;90.62;98742.94;105470;1254;73740;-46
2023/03/07 09:50:56;;;;;;;18.30;13.10;;;;;;;3.79;90.81;98747.27;106003;1254;70224;-47
2023/03/07 09:53:46;;;;;;;17.80;12.40;;;;;;;3.82;90.35;98747.01;105470;1257;70032;-47
2023/03/07 09:56:20;;;;;;;19.00;12.30;;;;;;;3.83;90.30;98741.80;105572;1254;74822;-46
2023/03/07 09:59:13;;;;;;;20.00;13.80;;;;;;;3.82;90.42;98739.07;105568;1254;83546;-47
2023/03/07 10:02:16;;;;;;;20.30;14.00;;;;;;;3.77;89.95;98744.92;105598;1256;73585;-49
2023/03/07 10:04:51;;;;;;;18.70;12.40;;;;;;;3.77;90.18;98740.13;105662;1256;69869;-48
2023/03/07 10:07:22;;;;;;;19.80;12.70;;;;;;;3.78;89.83;98742.13;105886;1253;69942;-47
2023/03/07 10:09:55;;;;;;;18.40;12.00;;;;;;;3.78;89.83;98739.72;105569;1257;75208;-48
2023/03/07 10:12:23;;;;;;;19.00;11.70;;;;;;;3.80;89.72;98731.03;105957;1253;82720;-50
2023/03/07 10:15:02;;;;;;;18.90;13.10;;;;;;;3.80;89.59;98733.27;105637;1253;73109;-49
2023/03/07 10:17:45;;;;;;;18.60;12.40;;;;;;;3.82;89.63;98729.36;105663;1254;69877;-49
2023/03/07 10:20:43;;;;;;;17.80;12.50;;;;;;;3.87;89.47;98728.37;105633;1253;70153;-48
2023/03/07 10:23:40;;;;;;;20.50;13.70;;;;;;;3.88;89.34;98726.77;105560;1257;73998;-47
2023/03/07 10:26:10;;;;;;;18.20;11.90;;;;;;;3.95;89.29;98727.70;105794;1256;83003;-47
2023/03/07 10:28:40;;;;;;;;;;;;;;;4.01;88.79;98722.47;105546;1252;73171;-50
2023/03/07 10:31:09;;;;;;;;;;;;;;;4.07;88.77;98717.77;105829;1252;70011;-50
2023/03/07 10:33:39;;;;;;;17.00;11.00;;;;;;;4.15;88.71;98720.90;105503;1254;69961;-50
2023/03/07 10:36:33;;;;;;;18.50;12.00;;;;;;;4.22;88.92;98717.70;105800;1255;74823;-50
2023/03/07 10:39:33;;;;;;;16.70;10.60;;;;;;;4.35;88.87;98719.13;105450;1256;83811;-50
2023/03/07 10:42:01;;;;;;;15.50;11.10;;;;;;;4.43;88.63;98724.33;105362;1257;73975;-50
2023/03/07 10:44:33;;;;;;;17.70;11.70;;;;;;;4.46;88.39;98718.34;105522;1254;69978;-50
2023/03/07 10:47:01;;;;;;;16.00;11.80;;;;;;;4.50;88.26;98718.52;105549;1254;69980;-50
2023/03/07 10:49:32;;;;;;;16.40;11.80;;;;;;;4.53;88.00;98718.23;105507;1254;73802;-49
2023/03/07 10:52:11;;;;;;;18.10;11.40;;;;;;;4.56;87.73;98711.73;105489;1254;82595;-49
2023/03/07 10:54:40;;;;;;;16.40;10.80;;;;;;;4.62;87.35;98709.06;105812;1256;72699;-49
2023/03/07 10:57:13;;;;;;;14.80;10.50;;;;;;;4.68;86.95;98704.17;105509;1254;69919;-50
2023/03/07 10:59:44;;;;;;;16.70;10.00;;;;;;;4.71;86.74;98699.55;105549;1254;69945;-50
2023/03/07 11:02:24;;;;;;;14.00;10.70;;;;;;;4.73;86.65;98699.77;105795;1253;74864;-49
2023/03/07 11:04:53;;;;;;;16.30;10.10;;;;;;;4.78;86.38;98692.86;105879;1253;83512;-49
2023/03/07 11:07:28;;;;;;;16.30;11.80;;;;;;;4.86;86.59;98685.75;105596;1254;72855;-49
2023/03/07 11:09:58;;;;;;;16.40;11.30;;;;;;;4.93;86.07;98685.64;105715;1252;69989;-48
2023/03/07 11:12:28;;;;;;;13.60;10.30;;;;;;;4.97;85.81;98679.61;105537;1252;69983;-48
2023/03/07 11:15:07;;;;;;;16.00;10.80;;;;;;;5.00;85.69;98679.11;105556;1256;75289;-48
2023/03/07 11:17:43;;;;;;;13.30;9.30;;;;;;;5.05;85.79;98678.06;105925;1254;81993;-48
2023/03/07 11:20:48;;;;;;;13.40;8.70;;;;;;;5.10;84.96;98672.48;105397;1254;73112;-47
2023/03/07 11:23:23;;;;;;;13.00;8.50;;;;;;;5.14;84.77;98668.67;105844;1256;69935;-47
2023/03/07 11:25:53;;;;;;;12.90;9.30;;;;;;;5.18;84.50;98664.20;105549;1252;71464;-47
2023/03/07 11:28:26;;;;;;;;;;;;;;;5.21;84.31;98663.02;105921;1254;75080;-49
2023/03/07 11:31:03;;;;;;;12.30;9.00;;;;;;;5.25;84.20;98657.13;105555;1256;83462;-49